Time;durP1;ratioP1;P1;durP2;ratioP2;P2;SDS_P1;SDS_P2;PMS_P1;PMS_P2;Temp;Humidity;BMP_temperature;BMP_pressure;BME280_temperature;BME280_humidity;BME280_pressure;Samples;Min_cycle;Max_cycle;Signal;HPM_P1;HPM_P2
2023/12/13 00:00:17;;;;;;;;;;;;;;;22.66;37.69;99573.28;5005923;28;19922;-48
2023/12/13 00:02:42;;;;;;;;;;;;;;;22.67;37.37;99560.56;5032409;28;19948;-46
2023/12/13 00:05:08;;;;;;;;;;;;;;;22.66;37.72;99553.50;5025420;28;19921;-47
2023/12/13 00:07:33;;;;;;;;;;;;;;;22.66;37.48;99556.22;5026236;28;19945;-46
2023/12/13 00:09:58;;;;;;;;;;;;;;;22.64;37.66;99548.31;5013654;28;19913;-46
2023/12/13 00:12:23;;;;;;;;;;;;;;;22.65;37.42;99558.09;5012432;28;19960;-50
2023/12/13 00:14:48;;;;;;;;;;;;;;;22.67;37.59;99557.88;5073155;28;19935;-49
2023/12/13 00:17:14;;;;;;;;;;;;;;;22.65;37.42;99560.00;5023367;28;20031;-47
2023/12/13 00:19:39;;;;;;;;;;;;;;;22.65;37.20;99557.28;5035647;28;19917;-45
2023/12/13 00:22:05;;;;;;;;;;;;;;;22.64;37.29;99548.31;5022556;28;19912;-48
2023/12/13 00:24:30;;;;;;;;;;;;;;;22.64;37.29;99548.31;5080467;28;19924;-47
2023/12/13 00:26:55;;;;;;;;;;;;;;;22.65;37.35;99555.38;5012612;28;19914;-45
2023/12/13 00:29:20;;;;;;;;;;;;;;;22.64;37.51;99550.19;5021324;28;20020;-49
2023/12/13 00:31:46;;;;;;;;;;;;;;;22.64;37.36;99548.31;5020220;28;20281;-45
2023/12/13 00:34:11;;;;;;;;;;;;;;;22.65;37.10;99549.16;5008980;28;19918;-46
2023/12/13 00:36:36;;;;;;;;;;;;;;;22.63;37.09;99545.81;5022462;28;19925;-44
2023/12/13 00:39:03;;;;;;;;;;;;;;;22.59;37.48;99545.44;5008498;28;19957;-45
2023/12/13 00:41:28;;;;;;;;;;;;;;;22.58;37.35;99551.91;5006762;28;19922;-45
2023/12/13 00:43:53;;;;;;;;;;;;;;;22.57;37.39;99544.03;5027381;28;19920;-49
2023/12/13 00:46:22;;;;;;;;;;;;;;;22.53;37.40;99546.34;5024618;28;19942;-44
2023/12/13 00:48:47;;;;;;;;;;;;;;;22.52;37.38;99552.00;5017907;28;20004;-47
2023/12/13 00:51:19;;;;;;;;;;;;;;;22.49;37.64;99544.31;5026213;28;20446;-47
2023/12/13 00:53:44;;;;;;;;;;;;;;;22.50;37.35;99543.28;5019968;28;20326;-46
2023/12/13 00:56:10;;;;;;;;;;;;;;;22.49;37.61;99541.63;5009626;28;20368;-46
2023/12/13 00:58:35;;;;;;;;;;;;;;;22.44;37.45;99553.97;5026642;28;19913;-46
2023/12/13 01:01:00;;;;;;;;;;;;;;;22.42;37.62;99547.91;5030997;28;20387;-45
2023/12/13 01:03:25;;;;;;;;;;;;;;;22.41;37.44;99557.09;5016082;28;19953;-47
2023/12/13 01:05:51;;;;;;;;;;;;;;;22.40;37.81;99554.63;5039619;28;19977;-46
2023/12/13 01:08:17;;;;;;;;;;;;;;;22.40;37.40;99557.34;5025898;28;19913;-47
2023/12/13 01:10:42;;;;;;;;;;;;;;;22.34;37.72;99556.34;5080383;28;19921;-44
2023/12/13 01:13:07;;;;;;;;;;;;;;;22.31;37.61;99551.38;5022180;28;19974;-47
2023/12/13 01:15:32;;;;;;;;;;;;;;;22.29;37.66;99556.19;5044740;28;19914;-46
2023/12/13 01:17:58;;;;;;;;;;;;;;;22.27;37.65;99552.88;5014085;28;19977;-45
2023/12/13 01:20:23;;;;;;;;;;;;;;;22.27;37.64;99555.59;5015940;28;19924;-49
2023/12/13 01:22:48;;;;;;;;;;;;;;;22.24;37.78;99555.22;5021155;28;19940;-45
2023/12/13 01:25:13;;;;;;;;;;;;;;;22.21;37.65;99553.75;5045991;28;19916;-47
2023/12/13 01:27:38;;;;;;;;;;;;;;;22.17;37.97;99553.41;5017781;28;19988;-48
2023/12/13 01:30:04;;;;;;;;;;;;;;;22.16;37.87;99556.31;5019735;28;19921;-48
2023/12/13 01:32:29;;;;;;;;;;;;;;;22.14;38.11;99553.03;5026940;28;19914;-46
2023/12/13 01:34:54;;;;;;;;;;;;;;;22.13;37.74;99554.03;5010896;28;20395;-44
2023/12/13 01:37:20;;;;;;;;;;;;;;;22.11;38.00;99556.13;5018742;28;19917;-45
2023/12/13 01:39:45;;;;;;;;;;;;;;;22.11;37.83;99558.84;5046587;28;20362;-45
2023/12/13 01:42:10;;;;;;;;;;;;;;;22.06;37.90;99559.50;5070580;28;19914;-45
2023/12/13 01:44:35;;;;;;;;;;;;;;;22.04;37.75;99555.34;5040938;28;19929;-45
2023/12/13 01:47:02;;;;;;;;;;;;;;;22.02;38.19;99560.19;5022465;28;19983;-46
2023/12/13 01:49:27;;;;;;;;;;;;;;;22.01;37.93;99558.53;5065101;28;19914;-45
2023/12/13 01:51:52;;;;;;;;;;;;;;;22.03;37.94;99561.81;5023082;28;19939;-45
2023/12/13 01:54:17;;;;;;;;;;;;;;;22.03;38.21;99551.00;5033274;28;19959;-46
2023/12/13 01:56:43;;;;;;;;;;;;;;;22.04;38.00;99558.06;5080366;28;19917;-45
2023/12/13 01:59:08;;;;;;;;;;;;;;;22.02;38.03;99560.19;5019575;28;19921;-45
2023/12/13 02:01:33;;;;;;;;;;;;;;;22.02;37.96;99562.88;5041239;28;20026;-47
2023/12/13 02:03:59;;;;;;;;;;;;;;;22.00;37.76;99565.78;5014840;28;19970;-47
2023/12/13 02:06:24;;;;;;;;;;;;;;;22.02;37.92;99560.19;5012787;28;19937;-46
2023/12/13 02:08:49;;;;;;;;;;;;;;;22.02;37.78;99563.69;5016012;28;19914;-46
2023/12/13 02:11:14;;;;;;;;;;;;;;;22.02;38.16;99562.88;5019987;28;20001;-46
2023/12/13 02:13:39;;;;;;;;;;;;;;;;;;5065210;28;19918;-50
2023/12/13 02:16:05;;;;;;;;;;;;;;;21.95;38.10;99558.34;5035507;28;20199;-46
2023/12/13 02:18:30;;;;;;;;;;;;;;;21.96;37.94;99564.56;5021804;28;20523;-46
2023/12/13 02:20:55;;;;;;;;;;;;;;;21.94;38.13;99558.56;5009457;28;19925;-48
2023/12/13 02:23:20;;;;;;;;;;;;;;;21.92;38.13;99571.50;5086737;28;19921;-44
2023/12/13 02:25:45;;;;;;;;;;;;;;;21.91;37.86;99561.72;5022066;28;19912;-46
2023/12/13 02:28:11;;;;;;;;;;;;;;;21.89;38.22;99561.13;5017414;28;19987;-44
2023/12/13 02:30:36;;;;;;;;;;;;;;;21.89;38.15;99564.66;5067551;28;20349;-46
2023/12/13 02:33:01;;;;;;;;;;;;;;;21.86;38.26;99567.78;5029350;28;19914;-46
2023/12/13 02:35:26;;;;;;;;;;;;;;;21.85;38.17;99566.13;5006991;28;19951;-50
2023/12/13 02:37:52;;;;;;;;;;;;;;;21.84;38.14;99566.38;5024550;28;19991;-46
2023/12/13 02:40:17;;;;;;;;;;;;;;;21.81;38.09;99567.63;5031712;28;19922;-44
2023/12/13 02:42:43;;;;;;;;;;;;;;;21.80;38.19;99557.03;5022076;28;19917;-48
2023/12/13 02:45:09;;;;;;;;;;;;;;;21.80;38.00;99562.44;5027675;28;19921;-45
2023/12/13 02:47:35;;;;;;;;;;;;;;;21.78;38.42;99567.22;5029138;28;19914;-45
2023/12/13 02:50:00;;;;;;;;;;;;;;;21.77;38.29;99552.88;5007100;28;19929;-46
2023/12/13 02:52:25;;;;;;;;;;;;;;;21.76;38.17;99558.53;5008682;28;19914;-48
2023/12/13 02:54:50;;;;;;;;;;;;;;;21.74;38.05;99560.59;5042065;28;20307;-46
2023/12/13 02:57:16;;;;;;;;;;;;;;;21.72;38.32;99560.84;5081901;28;19929;-47
2023/12/13 02:59:41;;;;;;;;;;;;;;;21.69;38.43;99551.25;5008257;28;19953;-47
2023/12/13 03:02:06;;;;;;;;;;;;;;;21.68;38.51;99548.78;5017438;28;19985;-46
2023/12/13 03:04:32;;;;;;;;;;;;;;;21.66;38.28;99546.31;5020892;28;19985;-47
2023/12/13 03:06:57;;;;;;;;;;;;;;;21.64;38.54;99550.28;5020333;28;19922;-47
2023/12/13 03:09:22;;;;;;;;;;;;;;;21.63;38.32;99548.63;5032641;28;19914;-45
2023/12/13 03:11:47;;;;;;;;;;;;;;;21.61;38.27;99543.41;5034155;28;19917;-46
2023/12/13 03:14:12;;;;;;;;;;;;;;;21.58;38.46;99546.59;5014901;28;19960;-45
2023/12/13 03:16:37;;;;;;;;;;;;;;;21.59;38.68;99550.13;5068495;28;19939;-47
2023/12/13 03:19:03;;;;;;;;;;;;;;;21.56;38.39;99545.13;5033101;28;19912;-50
2023/12/13 03:21:28;;;;;;;;;;;;;;;21.56;38.67;99545.97;5042023;28;19922;-46
2023/12/13 03:23:54;;;;;;;;;;;;;;;21.56;38.58;99542.44;5034207;28;19924;-45
2023/12/13 03:26:19;;;;;;;;;;;;;;;21.55;38.36;99538.06;5024032;28;19918;-50
2023/12/13 03:28:44;;;;;;;;;;;;;;;21.54;38.69;99539.97;5016087;28;19914;-48
2023/12/13 03:31:09;;;;;;;;;;;;;;;21.53;38.71;99534.75;5016759;28;19957;-49
2023/12/13 03:33:35;;;;;;;;;;;;;;;21.52;38.47;99535.81;5015454;28;20042;-47
2023/12/13 03:36:00;;;;;;;;;;;;;;;21.50;38.69;99536.03;5023415;28;19967;-46
2023/12/13 03:38:25;;;;;;;;;;;;;;;21.39;38.40;99524.03;5005314;28;19955;-46
2023/12/13 03:40:50;;;;;;;;;;;;;;;21.46;38.69;99530.22;5023924;28;19987;-49
2023/12/13 03:43:16;;;;;;;;;;;;;;;21.44;38.64;99528.78;5026750;28;20395;-50
2023/12/13 03:45:41;;;;;;;;;;;;;;;21.43;38.55;99533.34;5013180;28;19914;-46
2023/12/13 03:48:06;;;;;;;;;;;;;;;21.43;38.61;99543.34;5024193;28;19951;-49
2023/12/13 03:50:31;;;;;;;;;;;;;;;21.40;38.65;99547.31;5026612;28;19912;-48
2023/12/13 03:52:56;;;;;;;;;;;;;;;21.40;38.68;99535.66;5017432;28;19916;-50
2023/12/13 03:55:21;;;;;;;;;;;;;;;21.37;38.90;99542.34;5021540;28;19934;-49
2023/12/13 03:57:47;;;;;;;;;;;;;;;21.37;38.95;99534.25;5081460;28;20754;-47
2023/12/13 04:00:12;;;;;;;;;;;;;;;21.35;38.89;99530.91;5010906;28;19922;-47
2023/12/13 04:02:37;;;;;;;;;;;;;;;21.35;38.78;99535.50;5005056;28;19922;-47
2023/12/13 04:05:02;;;;;;;;;;;;;;;21.34;38.73;99534.66;5027680;28;19940;-48
2023/12/13 04:07:28;;;;;;;;;;;;;;;21.34;38.93;99539.25;5014877;28;20388;-48
2023/12/13 04:09:53;;;;;;;;;;;;;;;21.32;38.76;99535.94;5015554;28;19914;-49
2023/12/13 04:12:18;;;;;;;;;;;;;;;21.30;38.73;99538.81;5033342;28;19913;-50
2023/12/13 04:14:43;;;;;;;;;;;;;;;21.29;38.82;99533.66;5011821;28;19979;-46
2023/12/13 04:17:08;;;;;;;;;;;;;;;21.27;38.92;99535.72;5002244;28;19918;-48
2023/12/13 04:19:34;;;;;;;;;;;;;;;21.26;38.75;99540.31;5019080;28;19933;-46
2023/12/13 04:21:59;;;;;;;;;;;;;;;21.25;39.04;99532.44;5026605;28;19914;-46
2023/12/13 04:24:24;;;;;;;;;;;;;;;21.23;39.03;99540.72;5010265;28;19918;-47
2023/12/13 04:26:49;;;;;;;;;;;;;;;21.22;38.89;99533.69;5022890;28;19918;-46
2023/12/13 04:29:14;;;;;;;;;;;;;;;21.21;38.89;99540.13;5080616;28;19914;-47
2023/12/13 04:31:40;;;;;;;;;;;;;;;21.20;39.03;99539.31;5003833;28;20398;-47
2023/12/13 04:34:06;;;;;;;;;;;;;;;21.19;38.87;99539.50;5029837;28;19937;-46
2023/12/13 04:36:31;;;;;;;;;;;;;;;21.17;39.16;99531.63;5021847;28;19929;-51
2023/12/13 04:38:57;;;;;;;;;;;;;;;21.17;38.98;99531.63;5017577;28;20406;-46
2023/12/13 04:41:23;;;;;;;;;;;;;;;21.16;39.14;99532.69;5020177;28;19940;-45
2023/12/13 04:43:48;;;;;;;;;;;;;;;21.16;39.01;99531.84;5016798;28;20287;-44
2023/12/13 04:46:13;;;;;;;;;;;;;;;21.15;39.18;99530.16;5029176;28;19932;-44
2023/12/13 04:48:39;;;;;;;;;;;;;;;21.14;39.06;99531.22;5017362;28;19914;-46
2023/12/13 04:51:04;;;;;;;;;;;;;;;21.13;39.15;99530.41;5060488;28;19914;-46
2023/12/13 04:53:30;;;;;;;;;;;;;;;21.13;38.90;99529.56;5069654;28;19925;-49
2023/12/13 04:55:55;;;;;;;;;;;;;;;21.11;39.16;99526.25;5015953;28;19924;-46
2023/12/13 04:58:20;;;;;;;;;;;;;;;21.11;39.08;99531.66;5012057;28;19918;-46
2023/12/13 05:00:45;;;;;;;;;;;;;;;21.09;39.23;99526.47;5003988;28;20391;-50
2023/12/13 05:03:10;;;;;;;;;;;;;;;21.09;39.02;99525.66;5032119;28;19924;-47
2023/12/13 05:05:36;;;;;;;;;;;;;;;20.56;39.16;99450.25;5034393;28;19914;-47
2023/12/13 05:08:01;;;;;;;;;;;;;;;21.08;39.01;99524.00;5012879;28;19921;-46
2023/12/13 05:10:26;;;;;;;;;;;;;;;21.05;39.03;99527.94;5007681;28;19914;-46
2023/12/13 05:12:52;;;;;;;;;;;;;;;21.05;39.04;99527.13;5014597;28;19946;-49
2023/12/13 05:15:17;;;;;;;;;;;;;;;21.03;39.03;99531.94;5020507;28;19921;-46
2023/12/13 05:17:42;;;;;;;;;;;;;;;21.02;39.14;99527.53;5004148;28;19918;-45
2023/12/13 05:20:09;;;;;;;;;;;;;;;21.02;39.25;99530.25;5025624;28;19922;-49
2023/12/13 05:22:35;;;;;;;;;;;;;;;20.99;39.37;99526.13;5023239;28;19921;-49
2023/12/13 05:25:01;;;;;;;;;;;;;;;20.99;39.12;99528.00;5012948;28;19914;-48
2023/12/13 05:27:26;;;;;;;;;;;;;;;20.97;39.39;99525.50;5010763;28;20415;-47
2023/12/13 05:29:51;;;;;;;;;;;;;;;20.97;39.37;99528.19;5015460;28;19922;-46
2023/12/13 05:32:16;;;;;;;;;;;;;;;20.94;39.26;99529.47;5031684;28;20003;-45
2023/12/13 05:34:42;;;;;;;;;;;;;;;20.94;39.45;99526.78;5031067;28;19936;-48
2023/12/13 05:37:07;;;;;;;;;;;;;;;20.92;39.52;99526.13;5026994;28;19918;-45
2023/12/13 05:39:32;;;;;;;;;;;;;;;20.91;39.29;99527.19;5085949;28;20393;-45
2023/12/13 05:41:57;;;;;;;;;;;;;;;20.90;39.53;99528.25;5011290;28;19944;-49
2023/12/13 05:44:22;;;;;;;;;;;;;;;20.89;39.36;99525.75;5019599;28;19918;-49
2023/12/13 05:46:48;;;;;;;;;;;;;;;20.88;39.48;99524.09;5016867;28;19921;-46
2023/12/13 05:49:13;;;;;;;;;;;;;;;20.87;39.38;99520.56;5028932;28;19939;-46
2023/12/13 05:51:38;;;;;;;;;;;;;;;20.86;39.39;99527.00;5026395;28;19918;-46
2023/12/13 05:54:04;;;;;;;;;;;;;;;20.86;39.53;99531.59;5023355;28;20013;-48
2023/12/13 05:56:30;;;;;;;;;;;;;;;20.84;39.63;99533.66;5008419;28;19921;-49
2023/12/13 05:58:55;;;;;;;;;;;;;;;20.83;39.53;99532.00;5021939;28;19918;-47
2023/12/13 06:01:20;;;;;;;;;;;;;;;20.83;39.47;99532.00;5031287;28;20330;-49
2023/12/13 06:03:45;;;;;;;;;;;;;;;20.81;39.43;99528.69;5007675;28;19917;-44
2023/12/13 06:06:10;;;;;;;;;;;;;;;20.79;39.50;99528.91;5027642;28;19917;-46
2023/12/13 06:08:36;;;;;;;;;;;;;;;20.81;39.67;99532.22;5027856;28;20019;-47
2023/12/13 06:11:01;;;;;;;;;;;;;;;20.78;39.77;99524.56;5013598;28;20384;-44
2023/12/13 06:13:27;;;;;;;;;;;;;;;20.78;39.81;99526.44;5019994;28;19923;-47
2023/12/13 06:15:52;;;;;;;;;;;;;;;20.77;39.81;99539.09;5023472;28;19921;-46
2023/12/13 06:18:17;;;;;;;;;;;;;;;20.77;39.79;99536.38;5027373;28;19967;-47
2023/12/13 06:20:42;;;;;;;;;;;;;;;20.77;40.05;99533.69;5011371;28;19925;-46
2023/12/13 06:23:07;;;;;;;;;;;;;;;20.77;40.05;99538.25;5017416;28;19920;-48
2023/12/13 06:25:33;;;;;;;;;;;;;;;20.76;39.93;99536.59;5004091;28;19914;-44
2023/12/13 06:27:58;;;;;;;;;;;;;;;20.76;40.37;99534.72;5086060;28;19928;-49
2023/12/13 06:30:23;;;;;;;;;;;;;;;20.75;40.21;99538.47;5022345;28;19921;-44
2023/12/13 06:32:49;;;;;;;;;;;;;;;20.74;40.04;99539.53;5029512;28;19921;-47
2023/12/13 06:35:14;;;;;;;;;;;;;;;20.75;40.37;99541.19;5008227;28;19924;-49
2023/12/13 06:37:39;;;;;;;;;;;;;;;20.75;40.20;99545.75;5013675;28;19930;-47
2023/12/13 06:40:05;;;;;;;;;;;;;;;20.74;40.46;99542.22;5080005;28;19918;-48
2023/12/13 06:42:30;;;;;;;;;;;;;;;20.74;40.44;99547.63;5049622;28;19913;-44
2023/12/13 06:44:55;;;;;;;;;;;;;;;20.72;40.58;99550.53;5031433;28;19918;-45
2023/12/13 06:47:20;;;;;;;;;;;;;;;20.73;40.27;99551.38;5017046;28;19940;-46
2023/12/13 06:49:46;;;;;;;;;;;;;;;20.72;40.66;99552.41;5009878;28;19945;-47
2023/12/13 06:52:11;;;;;;;;;;;;;;;20.71;40.72;99553.47;5011939;28;19922;-45
2023/12/13 06:54:36;;;;;;;;;;;;;;;20.70;40.45;99557.22;5007003;28;19926;-44
2023/12/13 06:57:01;;;;;;;;;;;;;;;20.70;40.67;99551.81;5030534;28;19914;-44
2023/12/13 06:59:26;;;;;;;;;;;;;;;20.70;40.89;99555.34;5024445;28;19916;-44
2023/12/13 07:01:52;;;;;;;;;;;;;;;20.70;40.86;99557.22;5017676;28;19919;-46
2023/12/13 07:04:17;;;;;;;;;;;;;;;20.69;40.99;99555.56;5013615;28;19966;-44
2023/12/13 07:06:42;;;;;;;;;;;;;;;20.68;40.81;99554.69;5004642;28;19961;-46
2023/12/13 07:09:10;;;;;;;;;;;;;;;20.67;40.98;99561.16;5011063;28;20439;-47
2023/12/13 07:11:35;;;;;;;;;;;;;;;20.67;41.00;99554.91;5015629;28;19918;-45
2023/12/13 07:14:01;;;;;;;;;;;;;;;20.66;40.73;99561.38;5022378;28;19984;-46
2023/12/13 07:16:27;;;;;;;;;;;;;;;20.65;41.08;99557.03;5023839;28;19929;-45
2023/12/13 07:18:52;;;;;;;;;;;;;;;20.65;40.92;99571.34;5070054;28;19916;-46
2023/12/13 07:21:17;;;;;;;;;;;;;;;20.65;40.92;99570.53;5070972;28;19925;-46
2023/12/13 07:23:42;;;;;;;;;;;;;;;20.64;41.13;99566.16;5004894;28;19967;-46
2023/12/13 07:26:07;;;;;;;;;;;;;;;20.63;40.86;99570.72;5020030;28;19922;-45
2023/12/13 07:28:33;;;;;;;;;;;;;;;20.61;40.93;99570.13;5016523;28;19960;-47
2023/12/13 07:31:00;;;;;;;;;;;;;;;20.60;41.33;99573.00;5019729;28;19960;-44
2023/12/13 07:33:25;;;;;;;;;;;;;;;20.59;41.17;99568.66;5024842;28;19918;-48
2023/12/13 07:35:51;;;;;;;;;;;;;;;20.58;41.16;99575.09;5009690;28;19917;-45
2023/12/13 07:38:16;;;;;;;;;;;;;;;20.56;41.39;99575.34;5006733;28;20300;-47
2023/12/13 07:40:44;;;;;;;;;;;;;;;20.55;41.17;99570.13;5034548;28;19922;-48
2023/12/13 07:43:09;;;;;;;;;;;;;;;20.54;41.30;99584.66;5012936;28;19917;-49
2023/12/13 07:45:34;;;;;;;;;;;;;;;20.53;41.44;99583.84;5009262;28;19961;-47
2023/12/13 07:47:59;;;;;;;;;;;;;;;20.53;41.11;99583.84;5019865;28;19967;-46
2023/12/13 07:50:25;;;;;;;;;;;;;;;20.53;41.42;99588.41;5014848;28;20501;-46
2023/12/13 07:52:50;;;;;;;;;;;;;;;20.52;41.16;99582.19;4998903;28;19918;-48
2023/12/13 07:55:19;;;;;;;;;;;;;;;20.52;41.04;99589.44;5030721;28;19920;-49
2023/12/13 07:57:45;;;;;;;;;;;;;;;20.52;41.46;99586.75;5013621;28;19922;-47
2023/12/13 08:00:11;;;;;;;;;;;;;;;20.50;41.08;99586.97;5004692;28;19922;-46
2023/12/13 08:02:36;;;;;;;;;;;;;;;20.49;41.16;99596.09;5000538;28;19957;-49
2023/12/13 08:05:01;;;;;;;;;;;;;;;20.49;41.49;99588.00;5032359;28;20345;-50
2023/12/13 08:07:26;;;;;;;;;;;;;;;20.49;41.25;99582.59;5030314;28;20428;-46
2023/12/13 08:09:53;;;;;;;;;;;;;;;20.49;41.31;99589.88;5021615;28;19917;-44
2023/12/13 08:12:18;;;;;;;;;;;;;;;20.48;41.21;99594.44;5060971;28;19998;-49
2023/12/13 08:14:43;;;;;;;;;;;;;;;20.49;41.11;99597.97;5008296;28;19917;-47
2023/12/13 08:17:10;;;;;;;;;;;;;;;20.47;41.14;99595.44;5007106;28;19961;-45
2023/12/13 08:19:36;;;;;;;;;;;;;;;20.46;41.38;99591.09;5026504;28;19964;-49
2023/12/13 08:22:01;;;;;;;;;;;;;;;20.46;41.23;99591.09;5031105;28;19914;-45
2023/12/13 08:24:27;;;;;;;;;;;;;;;20.45;41.29;99592.13;5014201;28;19977;-46
2023/12/13 08:26:52;;;;;;;;;;;;;;;20.44;41.15;99598.59;5008089;28;20421;-44
2023/12/13 08:29:17;;;;;;;;;;;;;;;20.44;41.07;99604.81;5006539;28;19918;-48
2023/12/13 08:31:42;;;;;;;;;;;;;;;20.43;41.10;99597.75;5007335;28;19914;-45
2023/12/13 08:34:08;;;;;;;;;;;;;;;20.42;41.29;99604.16;5011393;28;19925;-47
2023/12/13 08:36:33;;;;;;;;;;;;;;;20.41;40.98;99602.53;5037659;28;19921;-45
2023/12/13 08:38:58;;;;;;;;;;;;;;;20.42;40.86;99597.94;5012218;28;19918;-47
2023/12/13 08:41:23;;;;;;;;;;;;;;;20.41;41.39;99604.41;5024155;28;20288;-45
2023/12/13 08:43:48;;;;;;;;;;;;;;;20.40;41.18;99603.56;5014019;28;20442;-47
2023/12/13 08:46:14;;;;;;;;;;;;;;;20.40;41.32;99603.56;5006630;28;19997;-47
2023/12/13 08:48:39;;;;;;;;;;;;;;;20.39;41.05;99604.63;5008597;28;19917;-49
2023/12/13 08:51:04;;;;;;;;;;;;;;;20.40;40.94;99608.97;5018338;28;19959;-48
2023/12/13 08:53:29;;;;;;;;;;;;;;;20.39;41.16;99604.63;5011807;28;19921;-48
2023/12/13 08:55:54;;;;;;;;;;;;;;;20.39;41.04;99603.75;5016967;28;19918;-46
2023/12/13 08:58:20;;;;;;;;;;;;;;;20.40;41.06;99603.56;5029558;28;20307;-47
2023/12/13 09:00:45;;;;;;;;;;;;;;;20.42;40.96;99606.03;5007527;28;19918;-49
2023/12/13 09:03:10;;;;;;;;;;;;;;;20.41;41.20;99607.09;5013903;28;19998;-44
2023/12/13 09:05:35;;;;;;;;;;;;;;;20.40;41.39;99608.97;5021270;28;19921;-47
2023/12/13 09:08:01;;;;;;;;;;;;;;;20.42;41.48;99608.75;5008771;28;20016;-47
2023/12/13 09:10:26;;;;;;;;;;;;;;;20.43;41.54;99608.56;5065149;28;19921;-45
2023/12/13 09:12:51;;;;;;;;;;;;;;;20.45;41.64;99617.25;5014210;28;20458;-45
2023/12/13 09:15:17;;;;;;;;;;;;;;;20.46;41.35;99616.22;5017042;28;19943;-45
2023/12/13 09:17:45;;;;;;;;;;;;;;;20.46;41.51;99618.09;5007125;28;20436;-45
2023/12/13 09:20:11;;;;;;;;;;;;;;;20.49;41.67;99627.69;5033060;28;19920;-45
2023/12/13 09:22:36;;;;;;;;;;;;;;;20.50;41.32;99626.63;5018525;28;19914;-48
2023/12/13 09:25:01;;;;;;;;;;;;;;;20.53;41.31;99634.31;5011242;28;19917;-45
2023/12/13 09:27:26;;;;;;;;;;;;;;;20.53;41.45;99635.16;5017587;28;19942;-48
2023/12/13 09:29:51;;;;;;;;;;;;;;;20.57;41.25;99635.56;5065734;28;19990;-44
2023/12/13 09:32:16;;;;;;;;;;;;;;;20.56;41.47;99636.56;4999689;28;19921;-44
2023/12/13 09:34:42;;;;;;;;;;;;;;;20.60;41.32;99637.81;5024029;28;19924;-43
2023/12/13 09:37:07;;;;;;;;;;;;;;;20.61;41.14;99634.94;5012803;28;20492;-44
2023/12/13 09:39:32;;;;;;;;;;;;;;;20.63;41.22;99649.03;5009738;28;20208;-44
2023/12/13 09:42:02;;;;;;;;;;;;;;;20.66;41.03;99639.69;5070743;28;19926;-48
2023/12/13 09:44:28;;;;;;;;;;;;;;;20.68;41.19;99640.31;5007272;28;19930;-48
2023/12/13 09:46:53;;;;;;;;;;;;;;;20.70;41.17;99654.44;5063020;28;20454;-49
2023/12/13 09:49:19;;;;;;;;;;;;;;;20.71;41.29;99656.91;5022085;28;19906;-48
2023/12/13 09:51:44;;;;;;;;;;;;;;;20.75;41.06;99649.22;5069072;28;19928;-47
2023/12/13 09:54:09;;;;;;;;;;;;;;;20.77;40.96;99654.41;5065008;28;19926;-49
2023/12/13 09:56:34;;;;;;;;;;;;;;;20.78;40.78;99665.03;5065580;28;19914;-45
2023/12/13 09:59:00;;;;;;;;;;;;;;;20.81;40.84;99659.19;5034716;28;20033;-47
2023/12/13 10:01:25;;;;;;;;;;;;;;;20.82;40.59;99660.84;5057622;28;19987;-44
2023/12/13 10:03:50;;;;;;;;;;;;;;;20.84;40.70;99661.47;5037102;28;19953;-48
2023/12/13 10:06:16;;;;;;;;;;;;;;;20.88;40.62;99661.88;5044663;28;19913;-47
2023/12/13 10:08:41;;;;;;;;;;;;;;;20.89;40.54;99663.53;5067563;28;19945;-49
2023/12/13 10:11:06;;;;;;;;;;;;;;;20.91;40.81;99672.25;4999304;28;19917;-48
2023/12/13 10:13:31;;;;;;;;;;;;;;;20.93;40.84;99675.56;5021114;28;19928;-49
2023/12/13 10:16:13;;;;;;;;;;;;;;;20.94;40.68;99672.69;5032912;28;20334;-49
2023/12/13 10:18:41;;;;;;;;;;;;;;;20.97;40.52;99680.34;5003555;28;19922;-46
2023/12/13 10:21:08;;;;;;;;;;;;;;;21.00;40.66;99680.97;5032859;28;19969;-48
2023/12/13 10:23:33;;;;;;;;;;;;;;;21.02;40.67;99681.56;5068272;28;20116;-46
2023/12/13 10:25:58;;;;;;;;;;;;;;;21.03;40.38;99686.78;5007660;28;19918;-48
2023/12/13 10:28:23;;;;;;;;;;;;;;;21.07;40.41;99690.72;5008764;28;20044;-48
2023/12/13 10:30:49;;;;;;;;;;;;;;;21.10;40.54;99697.56;5038456;28;19918;-48
2023/12/13 10:33:14;;;;;;;;;;;;;;;21.11;40.25;99696.50;5071917;28;19927;-46
2023/12/13 10:35:40;;;;;;;;;;;;;;;21.14;40.07;99693.38;5009940;28;19924;-48
2023/12/13 10:38:06;;;;;;;;;;;;;;;21.15;40.33;99690.50;5044809;28;19916;-48
2023/12/13 10:40:31;;;;;;;;;;;;;;;21.18;40.06;99690.06;5070912;28;19947;-48
2023/12/13 10:42:56;;;;;;;;;;;;;;;21.20;40.11;99690.69;5013625;28;20292;-46
2023/12/13 10:45:22;;;;;;;;;;;;;;;21.22;40.26;99693.16;5026951;28;20375;-47
2023/12/13 10:47:47;;;;;;;;;;;;;;;21.25;40.03;99686.50;5015852;28;20380;-46
2023/12/13 10:50:13;;;;;;;;;;;;;;;21.29;40.05;99701.25;5071571;28;19925;-47
2023/12/13 10:52:38;;;;;;;;;;;;;;;21.30;40.13;99698.34;5070644;28;19921;-46
2023/12/13 10:55:05;;;;;;;;;;;;;;;21.33;40.10;99692.53;5019230;28;19928;-45
2023/12/13 10:57:30;;;;;;;;;;;;;;;21.37;39.91;99695.66;5070559;28;19914;-44
2023/12/13 10:59:55;;;;;;;;;;;;;;;21.38;39.84;99691.88;5025735;28;19916;-46
2023/12/13 11:02:21;;;;;;;;;;;;;;;21.41;39.83;99686.88;5066144;28;20438;-44
2023/12/13 11:04:46;;;;;;;;;;;;;;;21.42;39.89;99698.53;5008015;28;19918;-44
2023/12/13 11:07:11;;;;;;;;;;;;;;;21.46;39.77;99697.06;5010572;28;19916;-49
2023/12/13 11:09:47;;;;;;;;;;;;;;;21.49;40.03;99704.72;5008640;28;19932;-44
2023/12/13 11:12:13;;;;;;;;;;;;;;;21.52;39.78;99704.31;5002896;28;19922;-47
2023/12/13 11:14:40;;;;;;;;;;;;;;;21.55;39.64;99703.06;5024053;28;19928;-48
2023/12/13 11:17:05;;;;;;;;;;;;;;;21.57;39.75;99709.88;5015994;28;19921;-46
2023/12/13 11:19:30;;;;;;;;;;;;;;;21.58;39.87;99710.72;5010598;28;20040;-49
2023/12/13 11:21:56;;;;;;;;;;;;;;;21.62;40.21;99712.81;5016641;28;19925;-49
2023/12/13 11:24:25;;;;;;;;;;;;;;;21.66;39.84;99718.59;5009092;28;20088;-48
2023/12/13 11:26:52;;;;;;;;;;;;;;;21.66;39.92;99711.31;5060902;28;20114;-46
2023/12/13 11:29:21;;;;;;;;;;;;;;;21.70;39.97;99715.22;5014427;28;19921;-47
2023/12/13 11:31:47;;;;;;;;;;;;;;;21.76;39.78;99718.13;5023787;28;19917;-49
2023/12/13 11:34:12;;;;;;;;;;;;;;;21.80;39.95;99722.06;5017869;28;20328;-50
2023/12/13 11:36:39;;;;;;;;;;;;;;;21.83;39.80;99727.84;5009498;28;20026;-45
2023/12/13 11:39:07;;;;;;;;;;;;;;;21.87;40.11;99725.56;5021427;28;19913;-44
2023/12/13 11:41:33;;;;;;;;;;;;;;;21.88;39.99;99725.34;5078783;28;20362;-47
2023/12/13 11:43:58;;;;;;;;;;;;;;;21.92;39.76;99725.75;5028521;28;19932;-48
2023/12/13 11:46:25;;;;;;;;;;;;;;;21.96;39.85;99726.94;5027856;28;19914;-44
2023/12/13 11:48:50;;;;;;;;;;;;;;;21.98;39.82;99733.00;5025841;28;20284;-45
2023/12/13 11:51:15;;;;;;;;;;;;;;;22.03;39.75;99727.75;5006941;28;19928;-48
2023/12/13 11:53:41;;;;;;;;;;;;;;;22.12;39.26;99725.63;5013097;28;19922;-46
2023/12/13 11:56:08;;;;;;;;;;;;;;;22.10;39.57;99730.44;5021296;28;19944;-46
2023/12/13 11:58:33;;;;;;;;;;;;;;;22.17;39.22;99732.09;5008640;28;19922;-49
2023/12/13 12:00:58;;;;;;;;;;;;;;;22.23;39.38;99732.25;5030251;28;19927;-48
2023/12/13 12:03:24;;;;;;;;;;;;;;;22.25;39.48;99735.56;5027849;28;19956;-47
2023/12/13 12:05:49;;;;;;;;;;;;;;;22.31;39.48;99737.41;5061041;28;20374;-54
2023/12/13 12:08:14;;;;;;;;;;;;;;;22.32;39.35;99739.06;5080337;28;19951;-48
2023/12/13 12:10:40;;;;;;;;;;;;;;;22.34;39.36;99739.66;5007779;28;20269;-50
2023/12/13 12:13:05;;;;;;;;;;;;;;;22.36;39.41;99743.81;5020966;28;19925;-53
2023/12/13 12:15:35;;;;;;;;;;;;;;;22.42;39.29;99750.22;5011620;28;19912;-52
2023/12/13 12:18:03;;;;;;;;;;;;;;;22.45;39.33;99742.47;5014137;28;19921;-53
2023/12/13 12:20:28;;;;;;;;;;;;;;;22.49;39.14;99748.28;5013200;28;19918;-51
2023/12/13 12:22:53;;;;;;;;;;;;;;;22.53;39.26;99743.28;5008769;28;19925;-53
2023/12/13 12:25:20;;;;;;;;;;;;;;;22.58;39.02;99743.44;5020010;28;19995;-53
2023/12/13 12:27:46;;;;;;;;;;;;;;;22.63;39.02;99746.31;5068673;28;19925;-53
2023/12/13 12:30:12;;;;;;;;;;;;;;;22.65;38.71;99746.94;5020578;28;20419;-51
2023/12/13 12:32:37;;;;;;;;;;;;;;;22.66;38.64;99751.28;5067193;28;19914;-52
2023/12/13 12:35:02;;;;;;;;;;;;;;;22.68;38.87;99758.16;5018369;28;19917;-53
2023/12/13 12:37:28;;;;;;;;;;;;;;;22.68;38.57;99751.88;5006016;28;19925;-50